Barbados Meteorological Services
Auto gathered TAF list
Powered by Apparatus software
For Flight WS2513
Contact Number 1-(246)-535-0021/2/3/4/5/6
WEB: http://www.barbadosweather.org

**********************************************

2019/02/17 18:36
TAF TAF TXKF 171732Z 1718/1818 26015KT 9999 VCSH SCT018 BKN050
BECMG 1722/1724 31008KT
BECMG 1815/1818 22015KT


**********************************************
2019/02/17 18:09
TAF TLPL 171705Z 1718/1818 10020KT 9999 SCT026 PROB30
TEMPO 1718/1806 SHRA


**********************************************
2019/02/17 18:42
TAF TJSJ 171737Z 1718/1818 06015KT P6SM VCSH SCT030 SCT060
FM172230 10005KT P6SM FEW060
FM180800 13003KT P6SM VCSH FEW022 SCT035
FM181350 07016KT P6SM FEW035


**********************************************
2019/02/17 18:42
TAF TFFR 171600Z 1718/1818 10014KT 9999 SCT040
TEMPO 1806/1818 4000 SHRA SCT015TCU


**********************************************
2019/02/17 18:50
TAF TBPB 171700Z 1718/1818 09021KT 9999 SCT022= TAF TVSA 171700Z 1718/1818 08016KT 9999 SCT022


**********************************************
2019/02/17 18:06
TAF TAF TAPA 171700Z 1718/1818 09013KT 9999 SCT021 PROB30
TEMPO 1806/1812 SHRA


**********************************************
2019/02/17 18:22
TAF KPHL 171720Z 1718/1824 15004KT P6SM BKN200
FM172200 15006KT P6SM BKN060 OVC120
FM180100 12006KT 3SM -SNPL OVC012
FM180300 12005KT 3SM -SNRA OVC010
FM180500 13005KT 4SM -RA BR OVC008
FM180800 11005KT 2SM -RA BR OVC004
FM181100 VRB03KT 5SM BR OVC008
FM181400 28010KT P6SM BKN035
FM182000 28018G28KT P6SM BKN200


**********************************************
2019/02/17 18:50
TAF KORF 171748Z 1718/1818 07009KT P6SM OVC060
FM172300 11008KT P6SM -RA OVC035
FM180100 18007KT 5SM -RA BR OVC020
FM180500 21007KT 3SM RA BR OVC008
FM181100 24006KT 4SM -RA BR OVC015
FM181500 29009KT P6SM BKN035


**********************************************
2019/02/17 18:31
TAF KJFK 171724Z 1718/1824 15005KT P6SM SCT250
FM172000 17007KT P6SM SCT100 BKN200
FM180300 12008KT 3SM -SNPL BR BKN015 OVC025
FM180700 10010KT 2SM -PLRA BR BKN008
FM180900 08012KT 2SM -RA BR BKN006
FM181300 05006KT 3SM -DZ BR OVC009
FM181500 01006KT 5SM -DZ BR BKN009 OVC015
FM181700 29007KT P6SM BKN015 OVC025
FM181900 30018G26KT P6SM BKN035
FM182300 32020G28KT P6SM SCT035 SCT150


**********************************************
2019/02/17 18:40
TAF KIAD 171738Z 1718/1824 13008G16KT P6SM OVC050
FM172100 13008G16KT P6SM BKN025 OVC050
FM172300 15007KT 5SM -RA SCT015 OVC025
FM180200 15007KT 2SM -RA BKN008 OVC015
FM180600 VRB04KT 3SM -RA BKN008 OVC015
FM181200 27006KT P6SM SCT050 BKN200
FM181400 31012G22KT P6SM SCT050
FM181700 31015G30KT P6SM SCT050


**********************************************
2019/02/17 18:27
TAF KEWR 171724Z 1718/1824 14004KT P6SM SCT250
FM172000 16006KT P6SM SCT100 BKN200
FM180300 12005KT 3SM -SNPL BR BKN015 OVC025
FM180700 07009KT 2SM -PLRA BR BKN008
FM180900 04011KT 2SM -RA BR BKN006
FM181200 03006KT 3SM -DZ BR OVC010
FM181500 36005KT 5SM -DZ BR OVC015
FM181600 29007KT P6SM BKN015 OVC025
FM181800 30018G26KT P6SM BKN035
FM182200 32020G28KT P6SM SCT035 SCT150


**********************************************
2019/02/17 18:34
TAF KCHS 171730Z 1718/1818 10007KT P6SM OVC008
FM172300 15006KT P6SM SCT008 BKN015
FM180700 20010KT P6SM OVC007
FM181400 27007KT P6SM VCSH OVC015


**********************************************
2019/02/17 18:46
TAF KBOS 171739Z 1718/1824 09006KT P6SM SKC
FM172230 13005KT P6SM FEW250
FM180100 14004KT P6SM BKN110
FM180700 16004KT 1SM -SN OVC040
FM180900 10004KT 1/2SM SN FG OVC015
FM181400 06007KT 1SM -SN OVC010
FM182000 01009KT 2SM -SN OVC008
FM182100 01009KT P6SM OVC008
FM182300 35008KT P6SM OVC015


**********************************************
2019/02/17 18:39
TAF CYYZ 171738Z 1718/1824 08008G18KT 4SM -SHSN BKN015 OVC025
TEMPO 1718/1723 P6SM NSW BKN025 BKN120 PROB30 1718/1723 2SM -SHSN
FM172300 07010G20KT P6SM -SN BKN025 OVC070
TEMPO 1723/1804 11/2SM -SHSN OVC020 PROB30 1723/1804 3/4SM -SHSN VV008
FM180400 03012G22KT 3SM -SN OVC015
TEMPO 1804/1812 11/2SM -SN OVC010
FM181200 36015G25KT 4SM -SN OVC020 PROB40 1812/1814 2SM -SN BLSN
FM181400 35012G22KT P6SM SCT020 BKN070
FM181700 34015KT P6SM FEW020 SCT120
FM182200 34015KT P6SM SKC
RMK NXT FCST BY 172100Z


**********************************************
2019/02/17 18:42
TAF CYUL 171738Z 1718/1818 25005KT P6SM FEW020 SCT240
FM180200 VRB03KT P6SM BKN140
FM180900 02008KT P6SM FEW020 OVC090
TEMPO 1809/1817 P6SM -SHSN
BECMG 1811/1813 03015G25KT
RMK NXT FCST BY 172100Z


**********************************************
2019/02/17 18:42
TAF CYOW 171738Z 1718/1818 VRB03KT P6SM SCT240
FM180000 VRB03KT P6SM BKN140
BECMG 1802/1804 36008KT
FM180700 02010KT P6SM OVC100
FM181700 34012KT P6SM SCT120
RMK NXT FCST BY 172100Z


**********************************************
2019/02/17 18:42
TAF CYMX 171738Z 1718/1818 VRB03KT P6SM FEW050 SCT240
FM180200 VRB03KT P6SM SCT140
FM180700 VRB03KT P6SM BKN120
FM181000 03007KT P6SM FEW020 OVC090
TEMPO 1810/1815 P6SM -SHSN
RMK NXT FCST BY 180000Z


**********************************************